Time;durP1;ratioP1;P1;durP2;ratioP2;P2;SDS_P1;SDS_P2;PMS_P1;PMS_P2;Temp;Humidity;BMP_temperature;BMP_pressure;BME280_temperature;BME280_humidity;BME280_pressure;Samples;Min_cycle;Max_cycle;Signal;HPM_P1;HPM_P2
2022/03/29 00:00:19;;;;;;;50.30;23.05;;;13.40;99.90;;;;;;5036229;28;20175;-78
2022/03/29 00:02:45;;;;;;;70.28;26.67;;;13.30;99.90;;;;;;5036430;28;20172;-77
2022/03/29 00:05:10;;;;;;;66.05;24.55;;;13.30;99.90;;;;;;5036513;28;20270;-77
2022/03/29 00:07:36;;;;;;;60.58;24.75;;;13.30;99.90;;;;;;5034777;28;20650;-77
2022/03/29 00:10:05;;;;;;;56.22;25.60;;;13.20;99.90;;;;;;5035721;28;20176;-77
2022/03/29 00:12:34;;;;;;;64.82;25.83;;;13.50;99.90;;;;;;5035106;28;20600;-77
2022/03/29 00:15:01;;;;;;;51.13;25.05;;;13.40;99.90;;;;;;5035934;28;20164;-77
2022/03/29 00:17:27;;;;;;;54.53;24.45;;;13.30;99.90;;;;;;5036054;28;20176;-77
2022/03/29 00:19:52;;;;;;;53.35;24.08;;;13.10;99.90;;;;;;5035854;28;20251;-77
2022/03/29 00:22:18;;;;;;;43.10;22.60;;;13.00;99.90;;;;;;5035966;28;20230;-78
2022/03/29 00:24:43;;;;;;;52.08;24.45;;;13.10;99.90;;;;;;5034753;28;20172;-77
2022/03/29 00:27:09;;;;;;;46.78;22.10;;;13.30;99.90;;;;;;5035898;28;20274;-77
2022/03/29 00:29:35;;;;;;;55.28;23.38;;;13.50;99.90;;;;;;5035563;28;20203;-78
2022/03/29 00:32:01;;;;;;;50.15;21.40;;;13.60;99.90;;;;;;5035649;28;20543;-78
2022/03/29 00:34:27;;;;;;;45.40;22.15;;;13.60;99.90;;;;;;5036037;28;20172;-78
2022/03/29 00:36:53;;;;;;;52.42;24.38;;;13.60;99.90;;;;;;5035773;28;20710;-78
2022/03/29 00:39:18;;;;;;;51.47;23.20;;;13.40;99.90;;;;;;5035892;28;20164;-78
2022/03/29 00:41:44;;;;;;;46.08;22.60;;;13.40;99.90;;;;;;5035830;28;20182;-78
2022/03/29 00:44:10;;;;;;;48.67;22.23;;;13.30;99.90;;;;;;5035404;28;20527;-79
2022/03/29 00:46:35;;;;;;;48.67;23.73;;;13.20;99.90;;;;;;5035463;28;20206;-77
2022/03/29 00:49:01;;;;;;;50.35;22.40;;;13.00;99.90;;;;;;5035512;28;20204;-78
2022/03/29 00:51:27;;;;;;;51.70;23.13;;;12.90;99.90;;;;;;5036052;28;20620;-78
2022/03/29 00:53:53;;;;;;;50.63;21.73;;;13.10;99.90;;;;;;5035014;28;20168;-78
2022/03/29 00:56:20;;;;;;;43.83;22.13;;;13.30;99.90;;;;;;5034970;28;20247;-78
2022/03/29 00:58:46;;;;;;;47.05;22.77;;;13.20;99.90;;;;;;5033503;28;20188;-78
2022/03/29 01:01:13;;;;;;;52.67;21.58;;;13.10;99.90;;;;;;5035243;28;20176;-78
2022/03/29 01:03:41;;;;;;;43.13;22.25;;;13.30;99.90;;;;;;5035129;28;20199;-77
2022/03/29 01:06:08;;;;;;;47.03;23.05;;;13.20;99.90;;;;;;5035193;28;20574;-78
2022/03/29 01:08:35;;;;;;;42.80;20.45;;;13.00;99.90;;;;;;5035074;28;20238;-78
2022/03/29 01:11:02;;;;;;;47.13;22.27;;;12.90;99.90;;;;;;5033714;28;20575;-78
2022/03/29 01:13:28;;;;;;;50.38;22.60;;;12.90;99.90;;;;;;5035017;28;20275;-77
2022/03/29 01:15:54;;;;;;;46.78;20.02;;;13.10;99.90;;;;;;5034622;28;20660;-77
2022/03/29 01:18:23;;;;;;;50.28;22.83;;;13.20;99.90;;;;;;5035134;28;20242;-77
2022/03/29 01:20:54;;;;;;;52.10;21.92;;;13.10;99.90;;;;;;5035071;28;20164;-77
2022/03/29 01:23:20;;;;;;;49.38;22.30;;;13.10;99.90;;;;;;5034807;28;20508;-78
2022/03/29 01:25:49;;;;;;;40.20;21.67;;;12.90;99.90;;;;;;5034883;28;20214;-78
2022/03/29 01:28:16;;;;;;;37.50;20.23;;;12.90;99.90;;;;;;5034719;28;20203;-78
2022/03/29 01:30:42;;;;;;;34.88;19.98;;;12.80;99.90;;;;;;5034500;28;20524;-78
2022/03/29 01:33:09;;;;;;;43.33;20.27;;;12.60;99.90;;;;;;5033437;28;20652;-77
2022/03/29 01:35:35;;;;;;;54.22;22.67;;;12.70;99.90;;;;;;5034525;28;20229;-77
2022/03/29 01:38:01;;;;;;;55.15;21.02;;;12.90;99.90;;;;;;5034483;28;20192;-78
2022/03/29 01:40:27;;;;;;;44.22;19.88;;;13.10;99.90;;;;;;5032992;28;20529;-77
2022/03/29 01:42:55;;;;;;;49.08;20.48;;;13.10;99.90;;;;;;5034393;28;20672;-78
2022/03/29 01:45:23;;;;;;;42.58;20.65;;;13.10;99.90;;;;;;5034357;28;20174;-77
2022/03/29 01:47:49;;;;;;;39.33;18.95;;;13.00;99.90;;;;;;5034217;28;20208;-77
2022/03/29 01:50:15;;;;;;;45.40;19.10;;;13.00;99.90;;;;;;5034389;28;20617;-78
2022/03/29 01:52:45;;;;;;;40.90;19.90;;;13.00;99.90;;;;;;5034265;28;20172;-78
2022/03/29 01:55:12;;;;;;;41.85;19.15;;;13.00;99.90;;;;;;5034460;28;20163;-77
2022/03/29 01:57:38;;;;;;;45.95;19.77;;;13.20;99.90;;;;;;5034408;28;20180;-77
2022/03/29 02:02:53;;;;;;;38.20;18.58;;;12.70;99.90;;;;;;5034372;28;20238;-77
2022/03/29 02:05:20;;;;;;;46.58;20.48;;;12.60;99.90;;;;;;5034092;28;20176;-77
2022/03/29 02:07:45;;;;;;;41.75;19.65;;;12.70;99.90;;;;;;5033627;28;20187;-78
2022/03/29 02:10:18;;;;;;;48.33;19.23;;;12.90;99.90;;;;;;5033931;28;20646;-77
2022/03/29 02:12:46;;;;;;;41.58;18.23;;;12.90;99.90;;;;;;5034193;28;20557;-77
2022/03/29 02:15:12;;;;;;;35.83;17.73;;;12.70;99.90;;;;;;5033990;28;20245;-77
2022/03/29 02:17:37;;;;;;;50.38;18.48;;;12.70;99.90;;;;;;5032613;28;20184;-77
2022/03/29 02:20:06;;;;;;;45.78;18.80;;;12.70;99.90;;;;;;5032275;28;20183;-77
2022/03/29 02:22:32;;;;;;;41.78;17.75;;;12.70;99.90;;;;;;5032146;28;20183;-77
2022/03/29 02:24:58;;;;;;;48.70;19.08;;;12.90;99.90;;;;;;5033943;28;20178;-78
2022/03/29 02:27:23;;;;;;;41.40;18.10;;;13.10;99.90;;;;;;5033449;28;20183;-77
2022/03/29 02:29:49;;;;;;;39.10;17.58;;;13.00;99.90;;;;;;5033773;28;20666;-77
2022/03/29 02:32:15;;;;;;;41.22;19.25;;;12.90;99.90;;;;;;5033709;28;20694;-78
2022/03/29 02:34:40;;;;;;;38.92;17.67;;;12.80;99.90;;;;;;5033301;28;20168;-78
2022/03/29 02:37:06;;;;;;;37.45;16.33;;;12.70;99.90;;;;;;5033587;28;20184;-77
2022/03/29 02:39:31;;;;;;;31.52;16.58;;;12.60;99.90;;;;;;5033406;28;20631;-77
2022/03/29 02:41:57;;;;;;;30.83;17.10;;;12.60;99.90;;;;;;5033303;28;20629;-77
2022/03/29 02:44:23;;;;;;;38.85;15.63;;;12.70;99.90;;;;;;5033204;28;20168;-77
2022/03/29 02:46:49;;;;;;;47.80;17.02;;;12.90;99.90;;;;;;5031730;28;20191;-77
2022/03/29 02:49:14;;;;;;;35.78;17.02;;;12.90;99.90;;;;;;5033064;28;20208;-78
2022/03/29 02:51:40;;;;;;;39.70;16.38;;;13.00;99.90;;;;;;5033108;28;20256;-78
2022/03/29 02:54:05;;;;;;;39.17;15.77;;;12.80;99.90;;;;;;5033239;28;20172;-78
2022/03/29 02:56:31;;;;;;;43.17;16.50;;;12.70;99.90;;;;;;5033273;28;20613;-77
2022/03/29 02:58:57;;;;;;;37.22;16.33;;;12.50;99.90;;;;;;5033004;28;20563;-78
2022/03/29 03:01:22;;;;;;;47.90;15.27;;;12.40;99.90;;;;;;5032983;28;20210;-78
2022/03/29 03:03:48;;;;;;;36.75;16.48;;;12.40;99.90;;;;;;5033130;28;21136;-77
2022/03/29 03:06:14;;;;;;;38.88;16.00;;;12.60;99.90;;;;;;5033249;28;20170;-78
2022/03/29 03:08:40;;;;;;;26.50;15.38;;;12.40;99.90;;;;;;5032938;28;20691;-78
2022/03/29 03:11:06;;;;;;;40.40;15.00;;;12.40;99.90;;;;;;5033293;28;20168;-78
2022/03/29 03:13:33;;;;;;;36.67;15.80;;;12.30;99.90;;;;;;5032565;28;20171;-77
2022/03/29 03:15:58;;;;;;;39.15;16.25;;;12.30;99.90;;;;;;5031353;28;20241;-77
2022/03/29 03:18:24;;;;;;;34.42;15.73;;;12.20;99.90;;;;;;5032947;28;20192;-77
2022/03/29 03:20:50;;;;;;;41.17;16.00;;;12.30;99.90;;;;;;5032553;28;20175;-78
2022/03/29 03:23:15;;;;;;;29.70;15.15;;;12.40;99.90;;;;;;5032575;28;20210;-77
2022/03/29 03:25:41;;;;;;;44.75;17.27;;;12.40;99.90;;;;;;5032549;28;20163;-77
2022/03/29 03:28:07;;;;;;;35.80;14.77;;;12.60;99.90;;;;;;5032620;28;20211;-78
2022/03/29 03:30:33;;;;;;;32.90;15.73;;;12.60;99.90;;;;;;5032496;28;20175;-78
2022/03/29 03:32:59;;;;;;;39.10;16.77;;;12.30;99.90;;;;;;5031846;28;20175;-79
2022/03/29 03:35:24;;;;;;;36.10;14.43;;;12.40;99.90;;;;;;5032484;28;20164;-79
2022/03/29 03:37:50;;;;;;;30.10;14.52;;;12.50;99.90;;;;;;5032188;28;20188;-79
2022/03/29 03:40:17;;;;;;;34.63;15.60;;;12.50;99.90;;;;;;5032182;28;20171;-79
2022/03/29 03:42:42;;;;;;;35.53;16.23;;;12.40;99.90;;;;;;5031157;28;20527;-78
2022/03/29 03:45:09;;;;;;;35.72;15.77;;;12.20;99.90;;;;;;5032449;28;20182;-77
2022/03/29 03:47:35;;;;;;;39.45;16.20;;;12.20;99.90;;;;;;5032434;28;20192;-77
2022/03/29 03:50:02;;;;;;;37.72;14.85;;;12.20;99.90;;;;;;5032809;28;20176;-79
2022/03/29 03:52:28;;;;;;;36.70;15.20;;;12.20;99.90;;;;;;5032862;28;20174;-79
2022/03/29 03:54:56;;;;;;;39.95;15.75;;;12.20;99.90;;;;;;5032172;28;20172;-78
2022/03/29 03:57:22;;;;;;;43.95;16.52;;;12.20;99.90;;;;;;5032135;28;20195;-77
2022/03/29 03:59:49;;;;;;;40.67;17.40;;;12.10;99.90;;;;;;5032914;28;20164;-78
2022/03/29 04:02:16;;;;;;;50.63;16.90;;;12.10;99.90;;;;;;5032548;28;20160;-77
2022/03/29 04:04:41;;;;;;;35.92;16.15;;;12.20;99.90;;;;;;5031065;28;20627;-78
2022/03/29 04:07:07;;;;;;;48.17;17.38;;;11.90;99.90;;;;;;5032076;28;20270;-78
2022/03/29 04:09:35;;;;;;;33.58;16.02;;;11.90;99.90;;;;;;5031863;28;20819;-78
2022/03/29 04:12:02;;;;;;;35.53;15.73;;;11.80;99.90;;;;;;5031907;28;20188;-78
2022/03/29 04:14:28;;;;;;;48.47;16.33;;;11.90;99.90;;;;;;5032460;28;20662;-78
2022/03/29 04:16:54;;;;;;;35.13;15.95;;;11.80;99.90;;;;;;5030489;28;20196;-78
2022/03/29 04:19:20;;;;;;;38.97;17.08;;;11.70;99.90;;;;;;5032132;28;20160;-78
2022/03/29 04:21:45;;;;;;;37.80;17.05;;;11.60;99.90;;;;;;5031730;28;20175;-78
2022/03/29 04:24:11;;;;;;;34.00;15.93;;;11.50;99.90;;;;;;5032019;28;20161;-78
2022/03/29 04:26:36;;;;;;;32.28;15.20;;;11.70;99.90;;;;;;5031972;28;20164;-78
2022/03/29 04:29:02;;;;;;;34.15;16.27;;;11.70;99.90;;;;;;5031528;28;20208;-78
2022/03/29 04:31:27;;;;;;;34.13;16.33;;;11.70;99.90;;;;;;5031457;28;20658;-78
2022/03/29 04:33:53;;;;;;;56.58;17.15;;;11.60;99.90;;;;;;5031493;28;20180;-78
2022/03/29 04:36:19;;;;;;;41.58;15.38;;;11.50;99.90;;;;;;5031775;28;20168;-78
2022/03/29 04:38:45;;;;;;;27.05;14.57;;;11.50;99.90;;;;;;5031733;28;20270;-78
2022/03/29 04:41:11;;;;;;;47.35;16.35;;;11.70;99.90;;;;;;5031671;28;20202;-78
2022/03/29 04:43:36;;;;;;;45.83;16.05;;;11.60;99.90;;;;;;5031809;28;20176;-78
2022/03/29 04:46:02;;;;;;;40.67;14.35;;;11.50;99.90;;;;;;5035730;28;20168;-78
2022/03/29 04:48:29;;;;;;;42.35;15.48;;;11.50;99.90;;;;;;5035267;28;20235;-78
2022/03/29 04:50:54;;;;;;;26.30;14.43;;;11.70;99.90;;;;;;5035365;28;20174;-78
2022/03/29 04:53:20;;;;;;;34.58;14.20;;;11.70;99.90;;;;;;5035801;28;20594;-81
2022/03/29 04:55:45;;;;;;;41.25;17.08;;;11.70;99.90;;;;;;5036483;28;20170;-86
2022/03/29 04:58:11;;;;;;;37.95;15.88;;;11.80;99.90;;;;;;5038011;28;21183;-82
2022/03/29 05:00:37;;;;;;;42.67;14.32;;;11.80;99.90;;;;;;5042177;28;20620;-78
2022/03/29 05:03:03;;;;;;;31.25;15.68;;;11.50;99.90;;;;;;5040224;28;20176;-80
2022/03/29 05:05:29;;;;;;;40.17;14.32;;;11.40;99.90;;;;;;5038259;28;20655;-79
2022/03/29 05:07:54;;;;;;;31.58;14.55;;;11.40;99.90;;;;;;5035974;28;20272;-82
2022/03/29 05:10:20;;;;;;;25.40;14.07;;;11.50;99.90;;;;;;5037892;28;20168;-82
2022/03/29 05:12:48;;;;;;;48.90;14.82;;;11.50;99.90;;;;;;5038483;28;20247;-79
2022/03/29 05:15:16;;;;;;;41.10;15.13;;;11.60;99.90;;;;;;5038048;28;20198;-80
2022/03/29 05:17:43;;;;;;;32.03;14.32;;;11.50;99.90;;;;;;5036963;28;20188;-78
2022/03/29 05:20:10;;;;;;;35.90;13.70;;;11.40;99.90;;;;;;5037146;28;20259;-78
2022/03/29 05:22:50;;;;;;;41.35;15.90;;;11.30;99.90;;;;;;5036489;28;20251;-82
2022/03/29 05:25:19;;;;;;;31.65;15.38;;;11.40;99.90;;;;;;5035790;28;20163;-78
2022/03/29 05:27:45;;;;;;;34.63;14.82;;;11.30;99.90;;;;;;5034914;28;20648;-79
2022/03/29 05:30:12;;;;;;;37.75;14.70;;;11.30;99.90;;;;;;5034866;28;20552;-78
2022/03/29 05:32:38;;;;;;;38.33;15.73;;;11.30;99.90;;;;;;5035354;28;20687;-79
2022/03/29 05:35:07;;;;;;;32.78;14.52;;;11.20;99.90;;;;;;5035067;28;20259;-83
2022/03/29 05:37:33;;;;;;;33.05;16.30;;;11.10;99.90;;;;;;5035231;28;20223;-81
2022/03/29 05:39:58;;;;;;;39.13;14.80;;;11.00;99.90;;;;;;5033598;28;20206;-80
2022/03/29 05:42:24;;;;;;;46.33;16.60;;;11.00;99.90;;;;;;5035005;28;20615;-84
2022/03/29 05:44:50;;;;;;;42.20;14.88;;;11.00;99.90;;;;;;5034420;28;20175;-79
2022/03/29 05:49:59;;;;;;;37.03;14.27;;;11.20;99.90;;;;;;5034964;28;20662;-82
2022/03/29 05:52:25;;;;;;;46.47;16.45;;;11.30;99.90;;;;;;5035184;28;20168;-80
2022/03/29 05:54:51;;;;;;;45.30;15.68;;;11.30;99.90;;;;;;5034074;28;20167;-81
2022/03/29 05:57:17;;;;;;;38.75;14.40;;;11.40;99.90;;;;;;5034066;28;20233;-83
2022/03/29 05:59:45;;;;;;;30.25;14.65;;;11.30;99.90;;;;;;5034718;28;20499;-82
2022/03/29 06:02:10;;;;;;;29.95;13.98;;;11.10;99.90;;;;;;5035261;28;20250;-80
2022/03/29 06:04:36;;;;;;;30.83;15.55;;;11.00;99.90;;;;;;5034420;28;20176;-82
2022/03/29 06:07:04;;;;;;;37.25;14.43;;;11.00;99.90;;;;;;5035420;28;20263;-83
2022/03/29 06:09:30;;;;;;;30.88;13.77;;;10.90;99.90;;;;;;5033312;28;20211;-84
2022/03/29 06:11:56;;;;;;;36.80;14.27;;;10.80;99.90;;;;;;5034071;28;20156;-82
2022/03/29 06:14:22;;;;;;;41.88;15.85;;;10.90;99.90;;;;;;5032739;28;20182;-83
2022/03/29 06:16:48;;;;;;;31.05;15.32;;;11.10;99.90;;;;;;5034084;28;20160;-80
2022/03/29 06:19:14;;;;;;;47.72;15.43;;;11.30;99.90;;;;;;5033971;28;20168;-82
2022/03/29 06:21:40;;;;;;;42.75;15.45;;;11.30;99.90;;;;;;5033819;28;20229;-83
2022/03/29 06:24:07;;;;;;;37.38;15.93;;;11.50;99.90;;;;;;5033950;28;20168;-78
2022/03/29 06:26:36;;;;;;;40.33;16.77;;;11.60;99.90;;;;;;5033375;28;20163;-81
2022/03/29 06:29:03;;;;;;;42.63;15.45;;;11.80;99.90;;;;;;5033780;28;20554;-79
2022/03/29 06:31:28;;;;;;;34.47;14.80;;;11.80;99.90;;;;;;5033983;28;20226;-85
2022/03/29 06:33:54;;;;;;;49.90;16.42;;;11.50;99.90;;;;;;5033888;28;20755;-84
2022/03/29 06:36:20;;;;;;;38.72;15.40;;;11.40;99.90;;;;;;5033933;28;20175;-79
2022/03/29 06:38:46;;;;;;;32.92;14.55;;;11.30;99.90;;;;;;5034251;28;20254;-80
2022/03/29 06:41:13;;;;;;;41.88;15.10;;;11.20;99.90;;;;;;5033496;28;20183;-77
2022/03/29 06:43:39;;;;;;;36.25;17.13;;;11.40;99.90;;;;;;5033164;28;20164;-80
2022/03/29 06:46:08;;;;;;;145.90;22.02;;;11.50;99.90;;;;;;5033205;28;20192;-78
2022/03/29 06:48:34;;;;;;;50.33;17.50;;;11.60;99.90;;;;;;5033215;28;20569;-81
2022/03/29 06:51:00;;;;;;;52.35;17.02;;;11.70;99.90;;;;;;5033599;28;20198;-81
2022/03/29 06:53:25;;;;;;;61.42;17.73;;;11.70;99.90;;;;;;5033280;28;20168;-80
2022/03/29 06:55:51;;;;;;;52.35;17.40;;;11.60;99.90;;;;;;5033930;28;20172;-79
2022/03/29 06:58:18;;;;;;;60.00;18.58;;;11.50;99.90;;;;;;5033283;28;20194;-79
2022/03/29 07:00:44;;;;;;;45.10;16.73;;;11.60;99.90;;;;;;5033307;28;20175;-78
2022/03/29 07:03:10;;;;;;;38.35;16.52;;;11.80;99.90;;;;;;5032853;28;20171;-78
2022/03/29 07:05:38;;;;;;;47.58;18.10;;;12.00;99.90;;;;;;5032969;28;20187;-81
2022/03/29 07:08:05;;;;;;;38.67;16.42;;;12.20;99.90;;;;;;5032692;28;20199;-83
2022/03/29 07:13:15;;;;;;;36.88;15.85;;;12.40;99.90;;;;;;5033182;28;20179;-83
2022/03/29 07:15:41;;;;;;;45.25;15.85;;;12.40;99.90;;;;;;5033119;28;20182;-82
2022/03/29 07:18:07;;;;;;;48.85;17.33;;;12.40;99.90;;;;;;5033114;28;20215;-77
2022/03/29 07:20:33;;;;;;;35.13;16.80;;;12.70;99.90;;;;;;5032715;28;20196;-83
2022/03/29 07:22:59;;;;;;;46.17;16.27;;;13.00;99.90;;;;;;5033122;28;20164;-80
2022/03/29 07:25:26;;;;;;;37.78;15.77;;;13.00;99.90;;;;;;5033025;28;20164;-84
2022/03/29 07:27:53;;;;;;;51.75;17.45;;;12.90;99.90;;;;;;5033178;28;20200;-81
2022/03/29 07:30:20;;;;;;;63.30;19.33;;;13.00;99.90;;;;;;5033438;28;20187;-90
2022/03/29 07:32:50;;;;;;;43.60;19.25;;;13.20;99.90;;;;;;5032944;28;20164;-82
2022/03/29 07:35:17;;;;;;;60.05;20.50;;;13.30;99.90;;;;;;5032583;28;20194;-84
2022/03/29 07:37:43;;;;;;;43.30;19.35;;;13.30;99.90;;;;;;5032720;28;20186;-78
2022/03/29 07:40:11;;;;;;;40.30;17.45;;;13.40;99.90;;;;;;5032556;28;20179;-81
2022/03/29 07:42:37;;;;;;;49.00;20.13;;;13.50;99.90;;;;;;5032956;28;20171;-79
2022/03/29 07:45:04;;;;;;;59.10;19.70;;;13.50;99.90;;;;;;5033004;28;20167;-81
2022/03/29 07:47:31;;;;;;;66.00;22.65;;;13.70;99.90;;;;;;5032816;28;20192;-83
2022/03/29 07:49:56;;;;;;;58.70;18.67;;;13.90;99.90;;;;;;5032076;28;20207;-78
2022/03/29 07:52:22;;;;;;;51.80;21.08;;;14.10;99.90;;;;;;5031230;28;20620;-79
2022/03/29 07:54:48;;;;;;;50.38;20.73;;;14.40;99.90;;;;;;5042708;28;20264;-85
2022/03/29 07:57:14;;;;;;;64.90;19.90;;;14.70;99.90;;;;;;5032437;28;20203;-79
2022/03/29 07:59:40;;;;;;;49.17;19.10;;;14.40;99.90;;;;;;5031962;28;20163;-80
2022/03/29 08:02:07;;;;;;;59.83;21.27;;;14.40;99.90;;;;;;5031240;28;20198;-85
2022/03/29 08:04:33;;;;;;;39.95;18.35;;;14.50;99.90;;;;;;5031681;28;20179;-85
2022/03/29 08:07:00;;;;;;;57.03;19.92;;;14.60;99.90;;;;;;5030767;28;20682;-78
2022/03/29 08:09:29;;;;;;;53.35;18.88;;;14.80;99.90;;;;;;5042668;28;20285;-79
2022/03/29 08:11:55;;;;;;;46.22;18.67;;;14.70;99.90;;;;;;5050650;28;20167;-79
2022/03/29 08:14:22;;;;;;;61.13;20.00;;;14.80;99.90;;;;;;5050827;28;20163;-78
2022/03/29 08:16:48;;;;;;;52.45;19.40;;;15.00;99.90;;;;;;5050535;28;20167;-79
2022/03/29 08:19:14;;;;;;;49.15;18.42;;;15.10;99.90;;;;;;5051006;28;20564;-78
2022/03/29 08:21:50;;;;;;;63.67;19.88;;;14.90;99.90;;;;;;5054443;28;20201;-80
2022/03/29 08:24:24;;;;;;;39.42;18.48;;;15.10;99.90;;;;;;5051358;28;20261;-80
2022/03/29 08:26:53;;;;;;;59.88;21.48;;;15.30;99.90;;;;;;5043498;28;20683;-83
2022/03/29 08:29:21;;;;;;;47.13;20.50;;;15.20;99.90;;;;;;5034822;28;20749;-79
2022/03/29 08:31:51;;;;;;;52.65;22.77;;;15.00;99.90;;;;;;5034010;28;20176;-77
2022/03/29 08:34:17;;;;;;;57.83;25.42;;;14.90;99.90;;;;;;5033610;28;20233;-78
2022/03/29 08:36:43;;;;;;;55.75;23.75;;;14.90;99.90;;;;;;5035998;28;20164;-78
2022/03/29 08:39:10;;;;;;;48.97;23.45;;;14.70;99.90;;;;;;5035095;28;20226;-79
2022/03/29 08:41:38;;;;;;;57.45;22.05;;;14.80;99.90;;;;;;5035388;28;20160;-83
2022/03/29 08:44:06;;;;;;;56.97;20.67;;;14.90;99.90;;;;;;5035234;28;20170;-82
2022/03/29 08:46:38;;;;;;;49.30;19.80;;;15.10;99.90;;;;;;5034659;28;20809;-80
2022/03/29 08:49:08;;;;;;;54.97;20.00;;;15.30;99.90;;;;;;5034331;28;20207;-78
2022/03/29 08:51:36;;;;;;;36.78;19.70;;;15.30;99.90;;;;;;5037263;28;20176;-80
2022/03/29 08:54:02;;;;;;;61.17;20.27;;;15.30;99.90;;;;;;5034741;28;20265;-78
2022/03/29 08:56:28;;;;;;;44.13;18.40;;;15.40;99.90;;;;;;5034166;28;20183;-78
2022/03/29 08:58:54;;;;;;;67.22;19.88;;;15.50;99.90;;;;;;5034484;28;20188;-79
2022/03/29 09:01:20;;;;;;;50.80;19.05;;;15.20;99.90;;;;;;5033759;28;20167;-80
2022/03/29 09:04:03;;;;;;;46.92;20.42;;;15.10;99.90;;;;;;5035176;28;20156;-81
2022/03/29 09:06:29;;;;;;;48.40;20.63;;;15.00;99.90;;;;;;5034487;28;20245;-80
2022/03/29 09:08:54;;;;;;;39.92;19.58;;;15.30;99.90;;;;;;5034479;28;20215;-78
2022/03/29 09:11:21;;;;;;;38.53;19.35;;;15.40;99.90;;;;;;5033780;28;20609;-84
2022/03/29 09:14:03;;;;;;;56.55;20.40;;;15.60;99.90;;;;;;5034743;28;20168;-82
2022/03/29 09:16:31;;;;;;;47.90;20.50;;;15.80;99.90;;;;;;5033580;28;20229;-85
2022/03/29 09:18:57;;;;;;;44.20;19.60;;;15.50;99.90;;;;;;5034749;28;20175;-80
2022/03/29 09:21:24;;;;;;;38.47;20.17;;;15.70;99.90;;;;;;5034234;28;20183;-81
2022/03/29 09:24:36;;;;;;;58.08;21.42;;;15.90;99.90;;;;;;5035493;28;20259;-80
2022/03/29 09:27:09;;;;;;;40.28;20.98;;;15.70;99.90;;;;;;4973372;28;20678;-81
2022/03/29 09:29:34;;;;;;;48.55;20.73;;;15.50;99.90;;;;;;5027437;28;20219;-78
2022/03/29 09:32:09;;;;;;;59.05;21.05;;;15.40;99.90;;;;;;5033209;28;20164;-80
2022/03/29 09:34:35;;;;;;;44.50;20.33;;;15.70;99.90;;;;;;5033206;28;20171;-79
2022/03/29 09:37:03;;;;;;;48.75;18.83;;;15.70;99.90;;;;;;5034051;28;20194;-79
2022/03/29 09:39:29;;;;;;;43.72;20.83;;;15.50;99.90;;;;;;5036604;28;20176;-84
2022/03/29 09:41:58;;;;;;;41.72;21.50;;;15.60;99.90;;;;;;5034996;28;20195;-78
2022/03/29 09:44:57;;;;;;;50.38;21.67;;;16.00;99.90;;;;;;5034591;28;20168;-79
2022/03/29 09:47:26;;;;;;;68.00;20.17;;;16.30;99.90;;;;;;5034433;28;20263;-79
2022/03/29 09:49:57;;;;;;;140.68;24.70;;;16.40;99.90;;;;;;5034378;28;20659;-77
2022/03/29 09:52:26;;;;;;;50.47;20.52;;;16.40;99.90;;;;;;5032698;28;20175;-79
2022/03/29 09:55:15;;;;;;;54.70;20.88;;;15.90;99.90;;;;;;5034090;28;20640;-77
2022/03/29 09:57:43;;;;;;;49.00;21.17;;;16.10;99.90;;;;;;5034369;28;20237;-84
2022/03/29 10:00:12;;;;;;;42.80;19.90;;;16.20;99.90;;;;;;5034788;28;20242;-79
2022/03/29 10:02:40;;;;;;;49.88;22.08;;;15.80;99.90;;;;;;5034569;28;20163;-79
2022/03/29 10:05:09;;;;;;;58.47;20.92;;;15.60;99.90;;;;;;5033860;28;20692;-77
2022/03/29 10:07:42;;;;;;;54.55;22.58;;;15.60;99.90;;;;;;5033299;28;20606;-77
2022/03/29 10:10:08;;;;;;;55.33;21.42;;;15.80;99.90;;;;;;5034057;28;20187;-78
2022/03/29 10:12:34;;;;;;;43.28;19.90;;;15.80;99.90;;;;;;5034005;28;20164;-77
2022/03/29 10:15:01;;;;;;;44.33;21.38;;;15.90;99.90;;;;;;5032848;28;20167;-77
2022/03/29 10:17:28;;;;;;;36.75;19.08;;;16.10;99.90;;;;;;5032133;28;20544;-77
2022/03/29 10:19:55;;;;;;;37.83;18.83;;;16.10;99.90;;;;;;5033746;28;20524;-78
2022/03/29 10:22:21;;;;;;;40.35;19.35;;;16.20;99.90;;;;;;5033838;28;20534;-77
2022/03/29 10:24:47;;;;;;;40.55;19.45;;;15.80;99.90;;;;;;5033941;28;20247;-77
2022/03/29 10:27:16;;;;;;;54.05;19.95;;;15.80;99.90;;;;;;5033634;28;20192;-77
2022/03/29 10:29:42;;;;;;;46.42;19.88;;;15.60;99.90;;;;;;5033140;28;20215;-77
2022/03/29 10:32:08;;;;;;;37.90;21.13;;;15.70;99.90;;;;;;5033660;28;20217;-78
2022/03/29 10:34:37;;;;;;;43.42;19.23;;;15.90;99.90;;;;;;5033071;28;20598;-78
2022/03/29 10:37:07;;;;;;;39.53;19.15;;;16.00;99.90;;;;;;5033592;28;20187;-77
2022/03/29 10:39:49;;;;;;;38.85;20.27;;;16.00;99.90;;;;;;5033248;28;20222;-77
2022/03/29 10:42:38;;;;;;;49.63;20.98;;;16.10;99.90;;;;;;5031411;28;20163;-77
2022/03/29 10:45:09;;;;;;;47.72;21.23;;;16.20;99.90;;;;;;5032823;28;20164;-77
2022/03/29 10:47:36;;;;;;;31.48;17.08;;;16.40;99.90;;;;;;5032636;28;20660;-77
2022/03/29 10:50:03;;;;;;;46.25;19.77;;;16.40;99.90;;;;;;5032692;28;20203;-78
2022/03/29 10:52:36;;;;;;;33.28;18.52;;;16.40;99.90;;;;;;5033049;28;20184;-77
2022/03/29 10:55:27;;;;;;;35.55;18.05;;;16.30;99.90;;;;;;5031853;28;20180;-77
2022/03/29 10:58:05;;;;;;;37.60;18.55;;;16.10;99.90;;;;;;5033139;28;20257;-78
2022/03/29 11:00:31;;;;;;;40.60;18.70;;;16.40;99.90;;;;;;5032635;28;20239;-77
2022/03/29 11:03:07;;;;;;;31.13;16.42;;;16.50;99.90;;;;;;5032786;28;20168;-77
2022/03/29 11:05:33;;;;;;;44.83;17.67;;;16.40;99.90;;;;;;5033361;28;20305;-77
2022/03/29 11:08:11;;;;;;;32.97;15.48;;;16.50;99.90;;;;;;5032251;28;20611;-77
2022/03/29 11:10:43;;;;;;;23.45;16.58;;;16.50;99.90;;;;;;5031279;28;20203;-77
2022/03/29 11:13:27;;;;;;;28.60;15.65;;;16.60;99.90;;;;;;5031171;28;20182;-78
2022/03/29 11:16:25;;;;;;;40.25;16.90;;;16.70;99.90;;;;;;5032579;28;20183;-78
2022/03/29 11:18:52;;;;;;;36.25;17.17;;;16.90;99.90;;;;;;5030993;28;20684;-78
2022/03/29 11:21:44;;;;;;;29.85;15.57;;;16.80;99.90;;;;;;5032487;28;20263;-77
2022/03/29 11:24:13;;;;;;;23.80;13.18;;;17.00;99.90;;;;;;5032782;28;20167;-76
2022/03/29 11:26:53;;;;;;;34.20;14.32;;;17.00;99.90;;;;;;5032462;28;20159;-77
2022/03/29 11:29:19;;;;;;;25.52;13.18;;;16.90;99.90;;;;;;5032393;28;20211;-77
2022/03/29 11:31:45;;;;;;;41.60;15.32;;;16.80;99.90;;;;;;5033133;28;20186;-77
2022/03/29 11:34:11;;;;;;;50.60;16.08;;;16.80;99.90;;;;;;5037454;28;20167;-78
2022/03/29 11:36:39;;;;;;;26.33;12.45;;;16.90;99.90;;;;;;5034383;28;20175;-80
2022/03/29 11:39:20;;;;;;;32.95;14.00;;;17.10;99.90;;;;;;5041481;28;20628;-88
2022/03/29 11:41:47;;;;;;;27.67;14.35;;;17.10;99.90;;;;;;5041423;28;20175;-86
2022/03/29 11:44:15;;;;;;;28.70;12.50;;;17.40;99.90;;;;;;5036164;28;20179;-87
2022/03/29 11:46:55;;;;;;;34.35;13.60;;;17.60;99.90;;;;;;5034696;28;20620;-84
2022/03/29 11:49:26;;;;;;;30.25;12.32;;;17.60;99.90;;;;;;5033637;28;20211;-85
2022/03/29 11:52:03;;;;;;;19.15;9.95;;;17.80;99.90;;;;;;5035588;28;20164;-84
2022/03/29 11:54:28;;;;;;;23.27;10.75;;;17.70;99.90;;;;;;5033623;28;20235;-88
2022/03/29 11:56:54;;;;;;;25.27;10.45;;;17.80;99.90;;;;;;5032767;28;20246;-87
2022/03/29 11:59:19;;;;;;;18.30;8.75;;;17.90;99.90;;;;;;5033573;28;20182;-89
2022/03/29 12:01:45;;;;;;;28.38;8.50;;;17.90;99.90;;;;;;5033881;28;20200;-86
2022/03/29 12:04:11;;;;;;;24.10;9.02;;;17.80;99.90;;;;;;5033508;28;20229;-82
2022/03/29 12:06:48;;;;;;;22.33;9.02;;;17.90;99.90;;;;;;5032792;28;20156;-87
2022/03/29 12:09:21;;;;;;;22.90;9.18;;;18.10;99.90;;;;;;5033468;28;20217;-86
2022/03/29 12:11:47;;;;;;;24.30;9.25;;;17.90;99.90;;;;;;5034059;28;20168;-83
2022/03/29 12:14:15;;;;;;;21.92;12.00;;;17.90;99.90;;;;;;5034143;28;20171;-87
2022/03/29 12:16:49;;;;;;;25.73;12.05;;;18.20;99.90;;;;;;5033982;28;20164;-85
2022/03/29 12:19:25;;;;;;;25.25;11.93;;;18.30;99.90;;;;;;5034621;28;20171;-86
2022/03/29 12:21:56;;;;;;;19.83;10.95;;;18.40;99.90;;;;;;5035650;28;20651;-86
2022/03/29 12:24:23;;;;;;;25.73;12.88;;;18.30;99.90;;;;;;5032681;28;20259;-84
2022/03/29 12:26:56;;;;;;;25.55;10.93;;;18.40;99.90;;;;;;5032948;28;20528;-84
2022/03/29 12:29:25;;;;;;;23.35;9.75;;;18.60;99.90;;;;;;5033434;28;20237;-87
2022/03/29 12:31:51;;;;;;;22.98;10.98;;;18.50;99.90;;;;;;5035508;28;20172;-86
2022/03/29 12:34:24;;;;;;;15.88;9.07;;;18.40;99.90;;;;;;5033944;28;20629;-87
2022/03/29 12:36:57;;;;;;;16.40;9.65;;;18.40;99.90;;;;;;5032439;28;20168;-83
2022/03/29 12:39:30;;;;;;;19.48;8.68;;;18.40;99.90;;;;;;5032938;28;20708;-85